Time,TemperatureF,DewpointF,PressureIn,WindDirection,WindDirectionDegrees,WindSpeedMPH,WindSpeedGustMPH,Humidity,HourlyPrecipIn,Conditions,Clouds,dailyrainin,SoftwareType,DateUTC
2013-01-21 00:09:00,32.2,28.5,29.49,SSW,202,1.3,6.3,86,0.00,,,0.00,WeatherCatV1.10B1784,2013-01-21 00:09:00,
2013-01-21 00:19:00,32.2,28.5,29.49,WNW,292,0.7,4.5,86,0.00,,,0.00,WeatherCatV1.10B1784,2013-01-21 00:19:00,
2013-01-21 00:29:00,32.2,28.5,29.49,SW,225,4.2,6.5,86,0.00,,,0.00,WeatherCatV1.10B1784,2013-01-21 00:29:00,
2013-01-21 00:39:00,32.2,28.8,29.49,SW,225,2.5,3.8,87,0.00,,,0.00,WeatherCatV1.10B1784,2013-01-21 00:39:00,
2013-01-21 00:49:00,32.2,28.8,29.49,SSE,157,2.7,3.6,87,0.00,,,0.00,WeatherCatV1.10B1784,2013-01-21 00:49:00,
2013-01-21 00:59:00,32.2,28.8,29.49,South,180,0.0,2.0,87,0.00,,,0.00,WeatherCatV1.10B1784,2013-01-21 00:59:00,
2013-01-21 01:09:00,32.2,28.5,29.49,SSE,157,0.7,3.1,86,0.00,,,0.00,WeatherCatV1.10B1784,2013-01-21 01:09:00,
2013-01-21 01:19:00,32.4,28.9,29.48,South,180,0.0,1.6,87,0.00,,,0.00,WeatherCatV1.10B1784,2013-01-21 01:19:00,
2013-01-21 01:29:00,32.5,29.1,29.49,SSE,157,0.0,0.9,87,0.00,,,0.00,WeatherCatV1.10B1784,2013-01-21 01:29:00,
2013-01-21 01:39:00,32.5,29.1,29.49,WSW,247,0.0,2.9,87,0.00,,,0.00,WeatherCatV1.10B1784,2013-01-21 01:39:00,
2013-01-21 01:49:00,32.5,29.1,29.48,West,270,0.0,2.0,87,0.00,,,0.00,WeatherCatV1.10B1784,2013-01-21 01:49:00,
2013-01-21 01:59:00,32.5,29.1,29.49,SW,225,0.0,2.0,87,0.00,,,0.00,WeatherCatV1.10B1784,2013-01-21 01:59:00,
2013-01-21 02:09:00,32.5,29.1,29.49,SSW,202,0.0,3.6,87,0.00,,,0.00,WeatherCatV1.10B1784,2013-01-21 02:09:00,
2013-01-21 02:19:00,32.5,29.4,29.48,SW,225,2.2,2.2,88,0.00,,,0.00,WeatherCatV1.10B1784,2013-01-21 02:19:00,
2013-01-21 02:29:00,32.7,29.3,29.48,WSW,247,0.0,1.6,87,0.00,,,0.00,WeatherCatV1.10B1784,2013-01-21 02:29:00,
2013-01-21 02:39:00,32.7,29.3,29.48,SSW,202,0.0,4.9,87,0.00,,,0.00,WeatherCatV1.10B1784,2013-01-21 02:39:00,
2013-01-21 02:49:00,32.7,29.3,29.49,SSW,202,2.5,2.7,87,0.00,,,0.00,WeatherCatV1.10B1784,2013-01-21 02:49:00,
2013-01-21 02:59:00,32.9,29.1,29.48,WSW,247,1.6,5.1,86,0.00,,,0.00,WeatherCatV1.10B1784,2013-01-21 02:59:00,
2013-01-21 03:05:00,32.9,29.1,29.48,West,262,0.1,4.9,86,0.00,,,0.00,WeatherCatV1.10B1784,2013-01-21 03:05:00,
2013-01-21 03:09:00,32.9,29.1,29.49,NW,315,0.0,2.2,86,0.00,,,0.00,WeatherCatV1.10B1784,2013-01-21 03:09:00,
2013-01-21 03:10:00,32.9,29.1,29.48,NNW,333,2.3,2.5,86,0.00,,,0.00,WeatherCatV1.10B1784,2013-01-21 03:10:00,
2013-01-21 03:15:00,32.7,29.3,29.49,NNW,338,0.2,0.2,87,0.00,,,0.00,WeatherCatV1.10B1784,2013-01-21 03:15:00,
2013-01-21 03:20:00,32.7,29.3,29.49,NNW,338,0.2,0.2,87,0.00,,,0.00,WeatherCatV1.10B1784,2013-01-21 03:20:00,
2013-01-21 03:25:00,32.7,29.3,29.49,NNW,338,0.2,0.2,87,0.00,,,0.00,WeatherCatV1.10B1784,2013-01-21 03:25:00,
2013-01-21 03:30:00,32.7,29.3,29.49,NNW,338,0.2,0.2,87,0.00,,,0.00,WeatherCatV1.10B1784,2013-01-21 03:30:00,
2013-01-21 03:35:00,32.7,29.3,29.49,NNW,338,0.2,0.2,87,0.00,,,0.00,WeatherCatV1.10B1784,2013-01-21 03:35:00,
2013-01-21 03:40:00,32.7,29.3,29.49,NNW,338,0.2,0.2,87,0.00,,,0.00,WeatherCatV1.10B1784,2013-01-21 03:40:00,
2013-01-21 03:45:00,32.7,29.3,29.49,NNW,338,0.2,0.2,87,0.00,,,0.00,WeatherCatV1.10B1784,2013-01-21 03:45:00,
2013-01-21 03:50:00,32.7,29.3,29.49,NNW,338,0.2,0.2,87,0.00,,,0.00,WeatherCatV1.10B1784,2013-01-21 03:50:00,
2013-01-21 03:55:00,33.1,29.4,29.48,NW,315,0.3,0.3,86,0.00,,,0.00,WeatherCatV1.10B1784,2013-01-21 03:55:00,
2013-01-21 04:00:00,33.1,29.4,29.48,NW,315,0.3,0.3,86,0.00,,,0.00,WeatherCatV1.10B1784,2013-01-21 04:00:00,
2013-01-21 04:05:00,33.1,29.4,29.48,NW,315,0.3,0.3,86,0.00,,,0.00,WeatherCatV1.10B1784,2013-01-21 04:05:00,
2013-01-21 04:10:00,33.1,29.4,29.48,NW,315,0.3,0.3,86,0.00,,,0.00,WeatherCatV1.10B1784,2013-01-21 04:10:00,
2013-01-21 04:15:00,33.1,29.4,29.48,NW,315,0.3,0.3,86,0.00,,,0.00,WeatherCatV1.10B1784,2013-01-21 04:15:00,
2013-01-21 04:20:00,33.1,29.4,29.48,NW,315,0.3,0.3,86,0.00,,,0.00,WeatherCatV1.10B1784,2013-01-21 04:20:00,
2013-01-21 04:25:00,33.1,29.4,29.48,NW,315,0.3,0.3,86,0.00,,,0.00,WeatherCatV1.10B1784,2013-01-21 04:25:00,
2013-01-21 04:30:00,33.1,29.4,29.48,NW,315,0.3,0.3,86,0.00,,,0.00,WeatherCatV1.10B1784,2013-01-21 04:30:00,
2013-01-21 04:35:00,33.1,29.4,29.48,NW,315,0.3,0.3,86,0.00,,,0.00,WeatherCatV1.10B1784,2013-01-21 04:35:00,
2013-01-21 04:40:00,33.1,29.4,29.48,NW,315,0.3,0.3,86,0.00,,,0.00,WeatherCatV1.10B1784,2013-01-21 04:40:00,
2013-01-21 04:45:00,33.1,29.4,29.48,NW,315,0.3,0.3,86,0.00,,,0.00,WeatherCatV1.10B1784,2013-01-21 04:45:00,
2013-01-21 04:50:00,33.1,29.4,29.48,NW,315,0.3,0.3,86,0.00,,,0.00,WeatherCatV1.10B1784,2013-01-21 04:50:00,
2013-01-21 04:55:00,32.7,29.8,29.47,NNW,338,0.0,0.0,89,0.00,,,0.00,WeatherCatV1.10B1784,2013-01-21 04:55:00,
2013-01-21 05:00:00,32.7,29.8,29.47,NNW,338,0.0,0.0,89,0.00,,,0.00,WeatherCatV1.10B1784,2013-01-21 05:00:00,
2013-01-21 05:05:00,32.7,29.8,29.47,NNW,338,0.0,0.0,89,0.00,,,0.00,WeatherCatV1.10B1784,2013-01-21 05:05:00,
2013-01-21 05:10:00,32.7,29.8,29.47,NNW,338,0.0,0.0,89,0.00,,,0.00,WeatherCatV1.10B1784,2013-01-21 05:10:00,
2013-01-21 05:15:00,32.7,29.8,29.47,NNW,338,0.0,0.0,89,0.00,,,0.00,WeatherCatV1.10B1784,2013-01-21 05:15:00,
2013-01-21 05:20:00,32.7,29.8,29.47,NNW,338,0.0,0.0,89,0.00,,,0.00,WeatherCatV1.10B1784,2013-01-21 05:20:00,
2013-01-21 05:25:00,32.7,29.8,29.47,NNW,338,0.0,0.0,89,0.00,,,0.00,WeatherCatV1.10B1784,2013-01-21 05:25:00,
2013-01-21 05:30:00,32.7,29.8,29.47,NNW,338,0.0,0.0,89,0.00,,,0.00,WeatherCatV1.10B1784,2013-01-21 05:30:00,
2013-01-21 05:35:00,32.7,29.8,29.47,NNW,338,0.0,0.0,89,0.00,,,0.00,WeatherCatV1.10B1784,2013-01-21 05:35:00,
2013-01-21 05:40:00,32.7,29.8,29.47,NNW,338,0.0,0.0,89,0.00,,,0.00,WeatherCatV1.10B1784,2013-01-21 05:40:00,
2013-01-21 05:45:00,32.7,29.8,29.47,NNW,338,0.0,0.0,89,0.00,,,0.00,WeatherCatV1.10B1784,2013-01-21 05:45:00,
2013-01-21 05:50:00,32.7,29.8,29.47,NNW,338,0.0,0.0,89,0.00,,,0.00,WeatherCatV1.10B1784,2013-01-21 05:50:00,
2013-01-21 05:55:00,32.7,29.8,29.47,NNW,338,0.0,0.0,89,0.00,,,0.00,WeatherCatV1.10B1784,2013-01-21 05:55:00,
2013-01-21 06:00:00,32.7,29.8,29.47,NNW,338,0.0,0.0,89,0.00,,,0.00,WeatherCatV1.10B1784,2013-01-21 06:00:00,
2013-01-21 06:05:00,32.7,29.8,29.47,NNW,338,0.0,0.0,89,0.00,,,0.00,WeatherCatV1.10B1784,2013-01-21 06:05:00,
2013-01-21 06:10:00,32.7,29.8,29.47,NNW,338,0.0,0.0,89,0.00,,,0.00,WeatherCatV1.10B1784,2013-01-21 06:10:00,
2013-01-21 06:15:00,32.7,29.8,29.47,NNW,338,0.0,0.0,89,0.00,,,0.00,WeatherCatV1.10B1784,2013-01-21 06:15:00,
2013-01-21 06:20:00,32.7,29.8,29.47,NNW,338,0.0,0.0,89,0.00,,,0.00,WeatherCatV1.10B1784,2013-01-21 06:20:00,
2013-01-21 06:25:00,32.7,29.8,29.47,NNW,338,0.0,0.0,89,0.00,,,0.00,WeatherCatV1.10B1784,2013-01-21 06:25:00,
2013-01-21 06:30:00,32.7,29.8,29.47,NNW,338,0.0,0.0,89,0.00,,,0.00,WeatherCatV1.10B1784,2013-01-21 06:30:00,
2013-01-21 06:41:00,33.6,30.9,29.45,SW,227,0.7,2.5,90,0.00,,,0.00,WeatherCatV1.10B1784,2013-01-21 06:41:00,
2013-01-21 06:51:00,33.6,30.9,29.45,South,180,8.7,8.7,90,0.00,,,0.00,WeatherCatV1.10B1784,2013-01-21 06:51:00,
2013-01-21 07:01:00,33.6,30.6,29.45,North,0,2.9,7.8,89,0.00,,,0.00,WeatherCatV1.10B1784,2013-01-21 07:01:00,
2013-01-21 07:11:00,33.6,30.6,29.46,South,180,3.8,4.5,89,0.00,,,0.00,WeatherCatV1.10B1784,2013-01-21 07:11:00,
2013-01-21 07:21:00,33.6,30.6,29.45,NNW,337,1.1,2.5,89,0.00,,,0.00,WeatherCatV1.10B1784,2013-01-21 07:21:00,
2013-01-21 07:31:00,33.6,30.9,29.45,WNW,292,1.3,4.7,90,0.00,,,0.00,WeatherCatV1.10B1784,2013-01-21 07:31:00,
2013-01-21 07:41:00,33.6,30.9,29.45,WSW,247,0.0,2.5,90,0.00,,,0.00,WeatherCatV1.10B1784,2013-01-21 07:41:00,
2013-01-21 07:51:00,33.6,30.9,29.44,SSW,202,2.9,6.0,90,0.00,,,0.00,WeatherCatV1.10B1784,2013-01-21 07:51:00,
2013-01-21 08:01:00,33.6,30.9,29.44,North,0,5.1,5.1,90,0.00,,,0.00,WeatherCatV1.10B1784,2013-01-21 08:01:00,
2013-01-21 08:11:00,33.6,31.2,29.44,NNE,22,4.5,4.5,91,0.00,,,0.00,WeatherCatV1.10B1784,2013-01-21 08:11:00,
2013-01-21 08:21:00,33.6,31.2,29.44,West,270,1.6,4.5,91,0.00,,,0.00,WeatherCatV1.10B1784,2013-01-21 08:21:00,
2013-01-21 08:31:00,33.6,31.2,29.44,SSW,202,6.5,6.5,91,0.00,,,0.00,WeatherCatV1.10B1784,2013-01-21 08:31:00,
2013-01-21 08:41:00,33.4,31.0,29.44,SSW,202,3.1,3.1,91,0.00,,,0.00,WeatherCatV1.10B1784,2013-01-21 08:41:00,
2013-01-21 08:51:00,33.3,31.0,29.44,SW,225,0.9,9.2,91,0.00,,,0.00,WeatherCatV1.10B1784,2013-01-21 08:51:00,
2013-01-21 09:01:00,33.4,31.0,29.44,SW,225,7.2,12.5,91,0.00,,,0.00,WeatherCatV1.10B1784,2013-01-21 09:01:00,
2013-01-21 09:11:00,33.6,31.2,29.44,NW,315,1.1,11.2,91,0.00,,,0.00,WeatherCatV1.10B1784,2013-01-21 09:11:00,
2013-01-21 09:21:00,33.6,30.9,29.44,SSE,157,4.0,9.6,90,0.00,,,0.00,WeatherCatV1.10B1784,2013-01-21 09:21:00,
2013-01-21 09:31:00,33.8,31.1,29.44,North,0,0.9,6.9,90,0.00,,,0.00,WeatherCatV1.10B1784,2013-01-21 09:31:00,
2013-01-21 09:41:00,33.8,31.1,29.44,WNW,292,2.0,9.2,90,0.00,,,0.00,WeatherCatV1.10B1784,2013-01-21 09:41:00,
2013-01-21 09:51:00,34.0,31.3,29.45,West,270,4.9,5.4,90,0.00,,,0.00,WeatherCatV1.10B1784,2013-01-21 09:51:00,
2013-01-21 10:01:00,34.2,31.5,29.46,West,270,2.2,17.2,90,0.00,,,0.00,WeatherCatV1.10B1784,2013-01-21 10:01:00,
2013-01-21 10:11:00,34.0,31.3,29.45,SSW,202,3.4,9.2,90,0.00,,,0.00,WeatherCatV1.10B1784,2013-01-21 10:11:00,
2013-01-21 10:21:00,33.8,31.1,29.46,SE,135,2.2,3.6,90,0.00,,,0.00,WeatherCatV1.10B1784,2013-01-21 10:21:00,
2013-01-21 10:31:00,33.8,30.8,29.45,South,180,2.0,7.8,89,0.00,,,0.00,WeatherCatV1.10B1784,2013-01-21 10:31:00,
2013-01-21 10:41:00,34.0,31.0,29.45,ENE,67,3.1,6.7,89,0.00,,,0.00,WeatherCatV1.10B1784,2013-01-21 10:41:00,
2013-01-21 10:51:00,34.0,31.0,29.45,SW,225,1.3,5.4,89,0.00,,,0.00,WeatherCatV1.10B1784,2013-01-21 10:51:00,
2013-01-21 11:01:00,34.0,31.3,29.45,SSW,202,2.5,7.4,90,0.00,,,0.00,WeatherCatV1.10B1784,2013-01-21 11:01:00,
2013-01-21 11:11:00,33.8,31.1,29.45,North,0,0.9,7.8,90,0.00,,,0.00,WeatherCatV1.10B1784,2013-01-21 11:11:00,
2013-01-21 11:21:00,34.0,31.3,29.45,WSW,247,2.2,5.6,90,0.00,,,0.00,WeatherCatV1.10B1784,2013-01-21 11:21:00,
2013-01-21 11:31:00,34.0,30.8,29.45,West,270,3.1,9.8,89,0.00,,,0.00,WeatherCatV1.10B1784,2013-01-21 11:31:00,
2013-01-21 11:41:00,34.0,31.0,29.45,SW,225,1.3,2.5,89,0.00,,,0.00,WeatherCatV1.10B1784,2013-01-21 11:41:00,
2013-01-21 11:51:00,34.0,31.0,29.45,SSE,157,3.1,6.7,89,0.00,,,0.00,WeatherCatV1.10B1784,2013-01-21 11:51:00,
2013-01-21 12:01:00,34.2,31.2,29.45,NNE,22,3.6,5.6,89,0.00,,,0.00,WeatherCatV1.10B1784,2013-01-21 12:01:00,
2013-01-21 12:11:00,34.0,31.0,29.45,NW,315,0.0,3.8,89,0.00,,,0.00,WeatherCatV1.10B1784,2013-01-21 12:11:00,
2013-01-21 12:21:00,34.2,31.2,29.44,WSW,247,4.0,7.6,89,0.00,,,0.00,WeatherCatV1.10B1784,2013-01-21 12:21:00,
2013-01-21 12:31:00,34.2,30.9,29.45,SE,135,4.7,7.6,88,0.02,,,0.02,WeatherCatV1.10B1784,2013-01-21 12:31:00,
2013-01-21 12:41:00,34.3,31.4,29.44,NW,315,1.8,4.7,89,0.02,,,0.02,WeatherCatV1.10B1784,2013-01-21 12:41:00,
2013-01-21 12:51:00,34.3,31.1,29.44,SSW,202,3.8,5.8,88,0.02,,,0.02,WeatherCatV1.10B1784,2013-01-21 12:51:00,
2013-01-21 13:01:00,34.2,31.2,29.44,West,270,8.7,8.7,89,0.02,,,0.02,WeatherCatV1.10B1784,2013-01-21 13:01:00,
2013-01-21 13:11:00,34.2,31.0,29.43,West,270,0.0,7.4,89,0.02,,,0.02,WeatherCatV1.10B1784,2013-01-21 13:11:00,
2013-01-21 13:21:00,33.8,31.1,29.43,NNE,22,2.7,2.7,90,0.00,,,0.02,WeatherCatV1.10B1784,2013-01-21 13:21:00,
2013-01-21 13:31:00,33.6,31.2,29.43,NNW,337,3.8,3.8,91,0.00,,,0.02,WeatherCatV1.10B1784,2013-01-21 13:31:00,
2013-01-21 13:41:00,33.6,31.2,29.43,SSE,157,0.0,3.6,91,0.00,,,0.02,WeatherCatV1.10B1784,2013-01-21 13:41:00,
2013-01-21 13:51:00,33.6,31.2,29.43,SSW,202,3.1,6.3,91,0.00,,,0.02,WeatherCatV1.10B1784,2013-01-21 13:51:00,
2013-01-21 14:01:00,33.6,31.2,29.42,South,180,2.0,4.9,91,0.00,,,0.02,WeatherCatV1.10B1784,2013-01-21 14:01:00,
2013-01-21 14:11:00,33.6,30.9,29.42,NNW,337,2.7,6.3,90,0.00,,,0.02,WeatherCatV1.10B1784,2013-01-21 14:11:00,
2013-01-21 14:21:00,33.6,30.9,29.42,South,180,2.2,8.5,90,0.00,,,0.02,WeatherCatV1.10B1784,2013-01-21 14:21:00,
2013-01-21 14:31:00,33.6,30.9,29.43,SW,225,2.5,6.0,90,0.00,,,0.02,WeatherCatV1.10B1784,2013-01-21 14:31:00,
2013-01-21 14:41:00,33.6,30.6,29.42,South,180,1.8,4.5,89,0.00,,,0.02,WeatherCatV1.10B1784,2013-01-21 14:41:00,
2013-01-21 14:51:00,33.6,30.6,29.43,NW,315,0.0,9.8,89,0.00,,,0.02,WeatherCatV1.10B1784,2013-01-21 14:51:00,
2013-01-21 15:01:00,33.6,30.6,29.42,WNW,292,0.0,5.1,89,0.00,,,0.02,WeatherCatV1.10B1784,2013-01-21 15:01:00,
2013-01-21 15:11:00,33.4,30.8,29.42,WNW,292,3.1,10.5,90,0.00,,,0.02,WeatherCatV1.10B1784,2013-01-21 15:11:00,
2013-01-21 15:21:00,33.6,30.6,29.42,SW,225,1.6,7.2,89,0.00,,,0.02,WeatherCatV1.10B1784,2013-01-21 15:21:00,
2013-01-21 15:31:00,33.4,30.8,29.42,SE,135,1.8,3.8,90,0.00,,,0.02,WeatherCatV1.10B1784,2013-01-21 15:31:00,
2013-01-21 15:41:00,33.3,30.6,29.42,NNW,337,1.3,8.9,90,0.00,,,0.02,WeatherCatV1.10B1784,2013-01-21 15:41:00,
2013-01-21 15:51:00,33.3,30.6,29.42,SW,225,1.3,7.8,90,0.00,,,0.02,WeatherCatV1.10B1784,2013-01-21 15:51:00,
2013-01-21 16:01:00,33.3,30.6,29.42,ESE,112,2.0,2.0,90,0.00,,,0.02,WeatherCatV1.10B1784,2013-01-21 16:01:00,
2013-01-21 16:11:00,33.3,30.6,29.41,SSE,157,0.9,4.5,90,0.00,,,0.02,WeatherCatV1.10B1784,2013-01-21 16:11:00,
2013-01-21 16:21:00,33.1,30.5,29.42,NNW,337,3.1,6.0,90,0.00,,,0.02,WeatherCatV1.10B1784,2013-01-21 16:21:00,
2013-01-21 16:31:00,33.1,30.5,29.42,ESE,112,4.5,9.8,90,0.00,,,0.02,WeatherCatV1.10B1784,2013-01-21 16:31:00,
2013-01-21 16:41:00,33.1,30.5,29.42,SSW,202,3.1,7.4,90,0.00,,,0.02,WeatherCatV1.10B1784,2013-01-21 16:41:00,
2013-01-21 16:51:00,33.1,30.5,29.42,ENE,67,2.5,4.9,90,0.00,,,0.02,WeatherCatV1.10B1784,2013-01-21 16:51:00,
2013-01-21 17:01:00,33.1,30.7,29.43,South,180,3.8,9.2,91,0.00,,,0.02,WeatherCatV1.10B1784,2013-01-21 17:01:00,
2013-01-21 17:11:00,32.9,30.5,29.43,ESE,112,2.5,5.4,91,0.00,,,0.02,WeatherCatV1.10B1784,2013-01-21 17:11:00,
2013-01-21 17:21:00,33.1,30.7,29.43,SSW,202,1.8,5.8,91,0.00,,,0.02,WeatherCatV1.10B1784,2013-01-21 17:21:00,
2013-01-21 17:31:00,32.9,30.5,29.43,SSE,157,5.1,6.5,91,0.00,,,0.02,WeatherCatV1.10B1784,2013-01-21 17:31:00,
2013-01-21 17:41:00,32.7,30.4,29.42,South,180,3.8,6.3,91,0.00,,,0.02,WeatherCatV1.10B1784,2013-01-21 17:41:00,
2013-01-21 17:51:00,32.5,30.5,29.42,SSE,157,3.8,4.5,92,0.00,,,0.02,WeatherCatV1.10B1784,2013-01-21 17:51:00,
2013-01-21 18:01:00,32.5,30.5,29.42,SE,135,2.9,5.4,92,0.00,,,0.02,WeatherCatV1.10B1784,2013-01-21 18:01:00,
2013-01-21 18:11:00,32.5,30.5,29.42,WSW,247,2.0,11.4,92,0.00,,,0.02,WeatherCatV1.10B1784,2013-01-21 18:11:00,
2013-01-21 18:21:00,32.7,30.4,29.42,South,180,7.8,10.3,91,0.00,,,0.02,WeatherCatV1.10B1784,2013-01-21 18:21:00,
2013-01-21 18:31:00,32.7,30.4,29.43,WSW,247,3.8,13.6,91,0.00,,,0.02,WeatherCatV1.10B1784,2013-01-21 18:31:00,
2013-01-21 18:41:00,32.7,30.4,29.43,SSW,202,0.0,3.1,91,0.00,,,0.02,WeatherCatV1.10B1784,2013-01-21 18:41:00,
2013-01-21 18:51:00,32.7,30.5,29.42,South,180,4.7,6.0,92,0.00,,,0.02,WeatherCatV1.10B1784,2013-01-21 18:51:00,
2013-01-21 19:01:00,32.7,30.5,29.42,SSE,157,3.6,4.5,92,0.00,,,0.02,WeatherCatV1.10B1784,2013-01-21 19:01:00,
2013-01-21 19:11:00,32.5,30.5,29.42,SSE,157,3.8,9.4,92,0.00,,,0.02,WeatherCatV1.10B1784,2013-01-21 19:11:00,
2013-01-21 19:21:00,32.7,30.4,29.43,SSE,157,1.3,5.8,91,0.00,,,0.02,WeatherCatV1.10B1784,2013-01-21 19:21:00,
2013-01-21 19:31:00,32.7,30.4,29.42,SSW,202,1.6,7.8,91,0.00,,,0.02,WeatherCatV1.10B1784,2013-01-21 19:31:00,
2013-01-21 19:41:00,32.7,30.4,29.42,SE,135,2.0,6.9,91,0.00,,,0.02,WeatherCatV1.10B1784,2013-01-21 19:41:00,
2013-01-21 19:51:00,32.5,30.5,29.42,NW,315,0.0,4.5,92,0.00,,,0.02,WeatherCatV1.10B1784,2013-01-21 19:51:00,
2013-01-21 20:01:00,32.7,30.4,29.42,SSW,202,1.6,11.0,91,0.00,,,0.02,WeatherCatV1.10B1784,2013-01-21 20:01:00,
2013-01-21 20:11:00,32.7,30.4,29.42,NNE,22,0.9,9.6,91,0.00,,,0.02,WeatherCatV1.10B1784,2013-01-21 20:11:00,
2013-01-21 20:21:00,32.7,30.4,29.42,SSE,157,2.5,4.2,91,0.00,,,0.02,WeatherCatV1.10B1784,2013-01-21 20:21:00,
2013-01-21 20:31:00,32.7,30.4,29.43,SSE,157,0.0,3.1,91,0.00,,,0.02,WeatherCatV1.10B1784,2013-01-21 20:31:00,
2013-01-21 20:41:00,32.7,30.4,29.43,SSW,202,2.5,6.0,91,0.00,,,0.02,WeatherCatV1.10B1784,2013-01-21 20:41:00,
2013-01-21 20:51:00,32.7,30.4,29.43,WSW,247,3.8,7.4,91,0.00,,,0.02,WeatherCatV1.10B1784,2013-01-21 20:51:00,
2013-01-21 21:01:00,32.7,30.6,29.43,South,180,2.5,7.6,92,0.00,,,0.02,WeatherCatV1.10B1784,2013-01-21 21:01:00,
2013-01-21 21:11:00,32.7,30.6,29.43,SW,225,0.0,7.4,92,0.00,,,0.02,WeatherCatV1.10B1784,2013-01-21 21:11:00,
2013-01-21 21:21:00,32.7,30.9,29.43,South,180,3.1,4.2,93,0.00,,,0.02,WeatherCatV1.10B1784,2013-01-21 21:21:00,
2013-01-21 21:31:00,32.7,30.9,29.43,SW,225,0.7,7.2,93,0.00,,,0.02,WeatherCatV1.10B1784,2013-01-21 21:31:00,
2013-01-21 21:41:00,32.7,30.9,29.43,South,180,2.9,7.2,93,0.00,,,0.02,WeatherCatV1.10B1784,2013-01-21 21:41:00,
2013-01-21 21:51:00,32.9,30.8,29.43,North,0,0.0,3.6,92,0.00,,,0.02,WeatherCatV1.10B1784,2013-01-21 21:51:00,
2013-01-21 22:01:00,33.3,31.1,29.43,SSE,157,2.5,6.3,92,0.00,,,0.02,WeatherCatV1.10B1784,2013-01-21 22:01:00,
2013-01-21 22:11:00,33.4,31.0,29.44,SSE,157,1.6,8.3,91,0.00,,,0.02,WeatherCatV1.10B1784,2013-01-21 22:11:00,
2013-01-21 22:21:00,33.3,31.0,29.44,SE,135,6.3,7.8,91,0.00,,,0.02,WeatherCatV1.10B1784,2013-01-21 22:21:00,
2013-01-21 22:31:00,33.4,31.0,29.44,SSE,157,4.0,7.8,91,0.00,,,0.02,WeatherCatV1.10B1784,2013-01-21 22:31:00,
2013-01-21 22:41:00,33.3,30.9,29.44,South,180,4.2,6.9,91,0.00,,,0.02,WeatherCatV1.10B1784,2013-01-21 22:41:00,
2013-01-21 22:51:00,33.4,31.0,29.44,SW,225,2.5,4.9,91,0.00,,,0.02,WeatherCatV1.10B1784,2013-01-21 22:51:00,
2013-01-21 23:01:00,33.4,31.0,29.45,ESE,112,2.9,5.6,91,0.00,,,0.02,WeatherCatV1.10B1784,2013-01-21 23:01:00,
2013-01-21 23:11:00,33.6,31.2,29.45,South,180,2.9,4.7,91,0.00,,,0.02,WeatherCatV1.10B1784,2013-01-21 23:11:00,
2013-01-21 23:21:00,33.6,31.0,29.45,SSW,202,2.2,6.7,91,0.00,,,0.02,WeatherCatV1.10B1784,2013-01-21 23:21:00,
2013-01-21 23:31:00,33.6,31.2,29.45,SSE,157,2.9,5.8,91,0.00,,,0.02,WeatherCatV1.10B1784,2013-01-21 23:31:00,
2013-01-21 23:41:00,33.6,31.2,29.46,SSE,157,6.0,6.0,91,0.00,,,0.02,WeatherCatV1.10B1784,2013-01-21 23:41:00,
2013-01-21 23:51:00,33.6,31.2,29.45,South,180,3.6,5.1,91,0.00,,,0.02,WeatherCatV1.10B1784,2013-01-21 23:51:00,